createdAt,value
2023-02-02T00:04:49.483Z,15.98
2023-02-02T00:09:45.904Z,16.63
2023-02-02T00:14:42.662Z,16.70
2023-02-02T00:19:39.127Z,19.00
2023-02-02T00:24:35.505Z,17.02
2023-02-02T00:29:32.187Z,17.55
2023-02-02T00:34:28.606Z,16.17
2023-02-02T00:39:28.571Z,17.02
2023-02-02T00:44:43.267Z,16.83
2023-02-02T00:49:39.643Z,15.73
2023-02-02T00:54:36.142Z,15.82
2023-02-02T00:59:32.784Z,16.40
2023-02-02T01:04:29.158Z,15.00
2023-02-02T01:09:25.553Z,15.63
2023-02-02T01:14:22.079Z,14.95
2023-02-02T01:19:18.569Z,15.60
2023-02-02T01:24:14.955Z,14.57
2023-02-02T01:29:12.130Z,15.00
2023-02-02T01:34:08.986Z,17.73
2023-02-02T01:39:05.417Z,15.40
2023-02-02T01:44:06.979Z,15.60
2023-02-02T01:49:14.427Z,17.75
2023-02-02T01:54:18.717Z,16.63
2023-02-02T01:59:16.964Z,17.27
2023-02-02T02:04:14.160Z,16.90
2023-02-02T02:09:10.809Z,17.35
2023-02-02T02:14:29.027Z,13.70
2023-02-02T02:20:04.729Z,15.27
2023-02-02T02:26:00.974Z,14.65
2023-02-02T02:31:18.713Z,14.70
2023-02-02T02:36:26.599Z,16.15
2023-02-02T02:41:28.754Z,17.50
2023-02-02T02:46:26.798Z,16.27
2023-02-02T02:51:47.157Z,18.40
2023-02-02T02:57:05.518Z,17.02
2023-02-02T03:02:18.024Z,17.17
2023-02-02T03:07:23.763Z,16.48
2023-02-02T03:12:20.141Z,16.42
2023-02-02T03:17:16.553Z,13.63
2023-02-02T03:22:13.000Z,12.38
2023-02-02T03:27:09.562Z,14.13
2023-02-02T03:32:06.023Z,16.33
2023-02-02T03:37:02.479Z,13.40
2023-02-02T03:41:58.903Z,15.90
2023-02-02T03:46:55.451Z,14.13
2023-02-02T03:51:51.837Z,14.60
2023-02-02T03:56:48.269Z,13.95
2023-02-02T04:01:44.707Z,13.73
2023-02-02T04:06:41.161Z,14.75
2023-02-02T04:11:39.334Z,13.88
2023-02-02T04:16:37.673Z,12.80
2023-02-02T04:21:34.066Z,13.73
2023-02-02T04:26:30.638Z,13.18
2023-02-02T04:31:27.466Z,14.52
2023-02-02T04:36:24.045Z,13.77
2023-02-02T04:41:20.854Z,16.42
2023-02-02T04:46:17.336Z,15.77
2023-02-02T04:51:15.334Z,17.00
2023-02-02T04:56:16.931Z,16.23
2023-02-02T05:01:16.877Z,17.43
2023-02-02T05:06:15.862Z,17.58
2023-02-02T05:11:18.628Z,18.67
2023-02-02T05:21:11.765Z,16.83
2023-02-02T05:26:15.176Z,17.90
2023-02-02T05:31:12.043Z,17.40
2023-02-02T05:36:08.525Z,16.42
2023-02-02T05:41:05.112Z,18.00
2023-02-02T05:46:01.767Z,19.65
2023-02-02T05:51:04.984Z,17.95
2023-02-02T05:56:01.470Z,18.80
2023-02-02T06:00:57.881Z,18.95
2023-02-02T06:05:54.330Z,19.27
2023-02-02T06:10:50.791Z,18.98
2023-02-02T06:15:47.278Z,19.45
2023-02-02T06:20:43.722Z,20.23
2023-02-02T06:25:40.161Z,20.42
2023-02-02T06:30:36.575Z,21.83
2023-02-02T06:35:33.512Z,21.10
2023-02-02T06:40:30.037Z,20.75
2023-02-02T06:45:27.692Z,21.50
2023-02-02T06:50:24.355Z,19.35
2023-02-02T06:55:20.780Z,20.00
2023-02-02T07:00:19.685Z,20.20
2023-02-02T07:05:22.128Z,20.60
2023-02-02T07:11:11.512Z,23.03
2023-02-02T07:15:38.037Z,19.60
2023-02-02T07:20:34.556Z,18.38
2023-02-02T07:25:31.051Z,19.45
2023-02-02T07:30:29.777Z,17.10
2023-02-02T07:35:26.706Z,20.42
2023-02-02T07:40:23.261Z,19.38
2023-02-02T07:45:26.877Z,22.25
2023-02-02T07:50:25.342Z,20.60
2023-02-02T07:55:21.993Z,22.45
2023-02-02T08:00:19.060Z,22.83
2023-02-02T08:05:15.578Z,22.98
2023-02-02T08:10:12.124Z,25.88
2023-02-02T08:15:09.129Z,24.40
2023-02-02T08:20:06.168Z,21.67
2023-02-02T08:25:02.621Z,25.02
2023-02-02T08:29:59.020Z,24.88
2023-02-02T08:34:55.469Z,23.00
2023-02-02T08:39:51.936Z,23.10
2023-02-02T08:46:01.941Z,19.67
2023-02-02T08:50:05.536Z,20.55
2023-02-02T08:55:02.008Z,20.38
2023-02-02T08:59:58.677Z,19.98
2023-02-02T09:04:55.071Z,21.27
2023-02-02T09:09:52.553Z,18.73
2023-02-02T09:14:49.207Z,17.38
2023-02-02T09:19:45.700Z,17.38
2023-02-02T09:24:42.105Z,17.67
2023-02-02T09:29:38.537Z,18.20
2023-02-02T09:34:35.025Z,16.60
2023-02-02T09:39:31.431Z,18.27
2023-02-02T09:44:33.489Z,18.20
2023-02-02T09:49:57.782Z,17.45
2023-02-02T09:55:06.531Z,16.75
2023-02-02T10:00:05.652Z,13.52
2023-02-02T10:05:11.571Z,11.48
2023-02-02T10:10:34.359Z,10.43
2023-02-02T10:15:42.073Z,8.67
2023-02-02T10:20:51.289Z,9.65
2023-02-02T10:26:16.646Z,7.55
2023-02-02T10:31:30.082Z,7.97
2023-02-02T10:36:40.432Z,6.93
2023-02-02T10:42:04.913Z,6.38
2023-02-02T10:47:04.488Z,6.22
2023-02-02T10:52:10.868Z,6.05
2023-02-02T10:57:11.744Z,6.03
2023-02-02T11:02:20.325Z,6.10
2023-02-02T11:07:20.571Z,5.63
2023-02-02T11:12:25.462Z,5.40
2023-02-02T11:17:24.813Z,4.97
2023-02-02T11:22:39.360Z,5.22
2023-02-02T11:27:41.151Z,5.03
2023-02-02T11:32:37.880Z,5.17
2023-02-02T11:37:36.623Z,7.43
2023-02-02T11:42:33.936Z,5.22
2023-02-02T11:47:33.113Z,6.38
2023-02-02T11:52:32.621Z,6.13
2023-02-02T11:57:30.479Z,6.07
2023-02-02T12:02:31.020Z,5.00
2023-02-02T12:07:33.275Z,5.25
2023-02-02T12:12:50.157Z,5.22
2023-02-02T12:17:51.311Z,4.68
2023-02-02T12:22:47.665Z,6.13
2023-02-02T12:27:57.549Z,5.65
2023-02-02T12:33:38.254Z,5.40
2023-02-02T12:38:57.699Z,5.93
2023-02-02T12:44:07.336Z,5.03
2023-02-02T12:49:28.245Z,5.22
2023-02-02T12:54:48.120Z,5.22
2023-02-02T13:05:14.748Z,4.15
2023-02-02T13:10:33.915Z,4.93
2023-02-02T13:15:37.178Z,5.25
2023-02-02T13:21:16.723Z,5.15
2023-02-02T13:26:22.183Z,4.93
2023-02-02T13:31:36.892Z,4.78
2023-02-02T13:36:37.562Z,5.07
2023-02-02T13:41:33.957Z,4.65
2023-02-02T13:46:51.504Z,4.43
2023-02-02T13:52:32.889Z,4.85
2023-02-02T13:57:52.745Z,4.75
2023-02-02T14:02:56.150Z,5.20
2023-02-02T14:08:01.950Z,5.38
2023-02-02T14:13:32.540Z,4.80
2023-02-02T14:18:50.834Z,4.63
2023-02-02T14:23:54.367Z,4.57
2023-02-02T14:28:51.500Z,4.32
2023-02-02T14:33:48.610Z,4.75
2023-02-02T14:39:26.049Z,4.63
2023-02-02T14:44:22.650Z,4.50
2023-02-02T14:49:24.461Z,4.80
2023-02-02T14:54:28.872Z,4.90
2023-02-02T14:59:34.210Z,5.53
2023-02-02T15:04:30.805Z,5.38
2023-02-02T15:09:36.494Z,4.65
2023-02-02T15:14:35.508Z,5.20
2023-02-02T15:19:38.640Z,5.82
2023-02-02T15:24:36.226Z,5.32
2023-02-02T15:29:42.676Z,5.88
2023-02-02T15:34:43.920Z,5.75
2023-02-02T15:39:43.364Z,5.15
2023-02-02T15:44:39.843Z,5.93
2023-02-02T15:49:36.526Z,5.20
2023-02-02T15:54:37.942Z,5.15
2023-02-02T15:59:41.223Z,6.88
2023-02-02T16:04:40.471Z,6.10
2023-02-02T16:09:39.009Z,5.75
2023-02-02T16:14:39.621Z,5.65
2023-02-02T16:19:36.435Z,5.60
2023-02-02T16:24:46.761Z,6.63
2023-02-02T16:29:43.590Z,7.10
2023-02-02T16:34:40.325Z,7.35
2023-02-02T16:39:36.727Z,7.90
2023-02-02T16:44:46.055Z,6.70
2023-02-02T16:49:42.427Z,8.55
2023-02-02T16:54:43.714Z,8.20
2023-02-02T16:59:40.250Z,7.20
2023-02-02T17:04:36.700Z,7.88
2023-02-02T17:09:37.773Z,7.45
2023-02-02T17:14:36.874Z,7.90
2023-02-02T17:19:33.519Z,8.70
2023-02-02T17:24:29.906Z,8.68
2023-02-02T17:29:26.889Z,8.98
2023-02-02T17:34:23.812Z,8.20
2023-02-02T17:39:20.278Z,7.82
2023-02-02T17:44:16.722Z,9.00
2023-02-02T17:49:13.284Z,8.60
2023-02-02T17:54:14.513Z,8.80
2023-02-02T17:59:12.183Z,10.27
2023-02-02T18:04:12.912Z,10.63
2023-02-02T18:09:09.652Z,10.63
2023-02-02T18:14:06.088Z,9.40
2023-02-02T18:19:03.014Z,9.30
2023-02-02T18:23:59.590Z,9.15
2023-02-02T18:28:56.131Z,8.27
2023-02-02T18:33:53.706Z,9.18
2023-02-02T18:38:51.545Z,9.40
2023-02-02T18:43:48.538Z,9.27
2023-02-02T18:48:45.346Z,8.77
2023-02-02T18:53:49.191Z,8.50
2023-02-02T18:58:46.746Z,8.95
2023-02-02T19:03:48.267Z,8.75
2023-02-02T19:08:44.905Z,8.18
2023-02-02T19:13:41.500Z,9.18
2023-02-02T19:18:38.262Z,8.70
2023-02-02T19:23:37.426Z,7.80
2023-02-02T19:28:36.799Z,9.85
2023-02-02T19:33:41.770Z,8.90
2023-02-02T19:38:38.563Z,8.70
2023-02-02T19:43:36.514Z,9.20
2023-02-02T19:48:39.195Z,8.50
2023-02-02T19:53:38.613Z,10.52
2023-02-02T19:58:39.106Z,8.40
2023-02-02T20:03:43.360Z,8.10
2023-02-02T20:08:45.585Z,8.15
2023-02-02T20:13:48.740Z,10.38
2023-02-02T20:18:50.884Z,9.13
2023-02-02T20:23:47.795Z,9.88
2023-02-02T20:28:46.153Z,11.25
2023-02-02T20:33:46.686Z,10.80
2023-02-02T20:38:43.336Z,10.65
2023-02-02T20:43:39.777Z,10.23
2023-02-02T20:48:36.227Z,10.55
2023-02-02T20:53:32.763Z,10.05
2023-02-02T20:58:29.271Z,10.20
2023-02-02T21:03:25.808Z,10.05
2023-02-02T21:08:22.284Z,11.43
2023-02-02T21:13:18.723Z,10.25
2023-02-02T21:18:15.151Z,10.27
2023-02-02T21:23:11.578Z,11.02
2023-02-02T21:28:08.172Z,12.82
2023-02-02T21:33:06.783Z,10.82
2023-02-02T21:38:15.947Z,9.55
2023-02-02T21:43:18.614Z,9.77
2023-02-02T21:48:34.554Z,9.68
2023-02-02T21:53:33.794Z,9.57
2023-02-02T21:58:34.264Z,8.38
2023-02-02T22:03:38.221Z,10.20
2023-02-02T22:08:37.013Z,7.72
2023-02-02T22:13:35.396Z,7.35
2023-02-02T22:18:32.485Z,7.82
2023-02-02T22:23:28.941Z,8.38
2023-02-02T22:28:29.626Z,8.30
2023-02-02T22:33:26.615Z,8.00
2023-02-02T22:38:25.155Z,7.70
2023-02-02T22:43:21.990Z,7.93
2023-02-02T22:48:18.776Z,7.72
2023-02-02T22:53:15.470Z,8.00
2023-02-02T22:58:11.958Z,8.32
2023-02-02T23:03:08.436Z,7.15
2023-02-02T23:08:05.082Z,6.82
2023-02-02T23:13:03.477Z,7.25
2023-02-02T23:18:00.350Z,7.20
2023-02-02T23:22:56.775Z,8.35
2023-02-02T23:27:53.238Z,7.55
2023-02-02T23:32:50.061Z,8.13
2023-02-02T23:37:46.449Z,7.55
2023-02-02T23:42:42.982Z,8.05
2023-02-02T23:47:39.442Z,7.13
2023-02-02T23:52:36.874Z,8.40
2023-02-02T23:57:33.786Z,7.95
